Pagrindinis puslapis
METAR-TAF:

METAR-TAF

Oro uostai :

Elista, Rusija

platuma: 46-22N, ilguma: 044-20E, Aukštis: 150 m

Dabartinis oras

Ataskaita buvo paskelbta 35 minutes, ne 06:00 UTC
Vėjas 14 kt iš Pietryčių
Temperatūra 8°C
Drėgmė 71%
Slėgis 1018 hPa
Matomumas 10 km arba daugiau
Išsisklaidę debesys ne aukštis 2200 ft

METAR: URWI 100600Z 14007MPS 9999 SCT022 08/03 Q1018 R09/010065 TEMPO 13009G14MPS

Laikas: 10:35 (06:35 UTC)

Prognozė

Ataskaita buvo paskelbta 1 valandą ir 35 minutes, ne 05:00 UTC
Prognozė galioja nuo 10 metu 06 UTC su 10 metu 15 UTC
Vėjas 10 kt iš Pietryčių su gūsio iki 19 kt
Matomumas 10 km arba daugiau
Išsisklaidę debesys ne aukštis 2000 ft
Laikinai
nuo 10 metu 06 UTC su 10 metu 15 UTC
Vėjas 6 kt iš Pietų/Pietryčių su gūsio iki 19 kt

TAF: URWI 100500Z 1006/1015 13005G10MPS 9999 SCT020 TEMPO 1006/1015 15003G10MPS

Orai ataskaitas ir orų prognozės (METAR, TAF).

turimą stotys yra geltonos ir raudonos taškus žemėlapyje.

Perkelti pele per norėdami pamatyti stoties vardą.

Tada spustelėkite, norėdami matyti oro stebėjimo ir prognozės.

Norėdami pakeisti žemėlapį: spustelėkite ant žalios mygtukų su juodo kryžiaus žemyn,; žalią mygtuką su brūkšneliu, jei norite nutolinti; arba žalių rodyklių gretimoms žemėlapius.


METAR-TAF: